Time;durP1;ratioP1;P1;durP2;ratioP2;P2;SDS_P1;SDS_P2;PMS_P1;PMS_P2;Temp;Humidity;BMP_temperature;BMP_pressure;BME280_temperature;BME280_humidity;BME280_pressure;Samples;Min_cycle;Max_cycle;Signal;HPM_P1;HPM_P2
2021/05/11 00:02:00;;;;;;;8.77;1.58;;;;;;;16.42;56.86;100950.06;5034791;28;20026;-86
2021/05/11 00:04:29;;;;;;;4.05;1.00;;;;;;;16.42;56.89;100952.75;5032223;28;20056;-87
2021/05/11 00:06:56;;;;;;;9.65;1.13;;;;;;;16.38;57.05;100956.47;5036186;28;20038;-87
2021/05/11 00:09:31;;;;;;;2.45;0.70;;;;;;;16.36;56.92;100952.13;5036203;28;20120;-87
2021/05/11 00:11:58;;;;;;;2.30;0.95;;;;;;;16.35;56.85;100959.31;5030261;28;20018;-84
2021/05/11 00:14:24;;;;;;;6.03;1.05;;;;;;;16.32;57.40;100956.75;5032086;28;21045;-84
2021/05/11 00:16:51;;;;;;;1.48;0.65;;;;;;;16.31;57.44;100955.00;5034134;28;20028;-83
2021/05/11 00:19:18;;;;;;;4.55;1.08;;;;;;;16.28;57.69;100957.81;5025897;28;20030;-84
2021/05/11 00:21:47;;;;;;;4.30;1.08;;;;;;;16.29;57.57;100948.88;5018030;28;20117;-83
2021/05/11 00:24:16;;;;;;;0.98;0.70;;;;;;;16.26;57.53;100949.88;5020676;28;20106;-84
2021/05/11 00:26:43;;;;;;;2.25;0.70;;;;;;;16.27;57.92;100953.41;5024363;28;20105;-84
2021/05/11 00:29:09;;;;;;;7.28;0.93;;;;;;;16.29;57.49;100940.84;5016727;28;20035;-85
2021/05/11 00:31:36;;;;;;;6.47;1.05;;;;;;;16.28;57.31;100944.44;5016676;28;20061;-83
2021/05/11 00:34:02;;;;;;;5.88;1.05;;;;;;;16.28;57.64;100942.63;5016354;28;20101;-84
2021/05/11 00:36:29;;;;;;;2.78;1.25;;;;;;;16.28;57.40;100939.97;5018361;28;20022;-84
2021/05/11 00:38:55;;;;;;;1.27;0.75;;;;;;;16.29;57.77;100935.50;5015851;28;20029;-84
2021/05/11 00:41:22;;;;;;;4.60;0.80;;;;;;;16.29;57.83;100946.19;5016824;28;20173;-83
2021/05/11 00:43:48;;;;;;;3.80;1.20;;;;;;;16.31;57.35;100955.00;5016202;28;20026;-84
2021/05/11 00:46:15;;;;;;;7.85;1.02;;;;;;;16.29;57.65;100940.84;5022306;28;20060;-84
2021/05/11 00:48:42;;;;;;;1.02;0.70;;;;;;;16.28;57.66;100942.63;5016183;28;20037;-83
2021/05/11 00:51:10;;;;;;;1.90;1.35;;;;;;;16.30;57.57;100939.91;5021485;28;20057;-85
2021/05/11 00:53:38;;;;;;;2.10;1.00;;;;;;;16.30;58.05;100931.91;5020639;28;20084;-85
2021/05/11 00:56:06;;;;;;;5.30;1.25;;;;;;;16.30;58.03;100934.56;5021053;28;20550;-84
2021/05/11 00:58:33;;;;;;;3.33;1.40;;;;;;;16.28;58.16;100936.44;5022773;28;20030;-85
2021/05/11 01:00:59;;;;;;;4.28;0.95;;;;;;;16.25;58.09;100932.09;5018734;28;20087;-84
2021/05/11 01:03:26;;;;;;;5.50;0.95;;;;;;;16.26;58.05;100930.25;5017076;28;20087;-86
2021/05/11 01:05:53;;;;;;;1.58;1.10;;;;;;;16.25;57.97;100933.88;5020683;28;20029;-86
2021/05/11 01:08:19;;;;;;;3.17;1.35;;;;;;;16.24;57.85;100943.72;5020667;28;20514;-83
2021/05/11 01:10:46;;;;;;;2.30;0.98;;;;;;;16.23;57.97;100933.94;5019233;28;20465;-85
2021/05/11 01:13:16;;;;;;;4.97;1.17;;;;;;;16.21;57.85;100934.94;5018947;28;20022;-85
2021/05/11 01:15:51;;;;;;;1.10;1.00;;;;;;;16.27;58.27;100937.34;5023991;28;20109;-85
2021/05/11 01:18:27;;;;;;;7.35;1.33;;;;;;;16.19;57.97;100929.66;5020623;28;20030;-83
2021/05/11 01:21:03;;;;;;;0.98;0.50;;;;;;;16.19;58.26;100932.34;5021764;28;20026;-84
2021/05/11 01:26:28;;;;;;;2.80;1.35;;;;;;;16.10;58.18;100925.59;5019822;28;20057;-84
2021/05/11 01:46:34;;;;;;;1.70;1.60;;;;;;;15.99;57.91;100925.16;5028765;28;20026;-82
2021/05/11 01:48:39;;;;;;;1.83;1.00;;;;;;;15.98;58.05;100931.44;5030208;28;20037;-83
2021/05/11 01:57:08;;;;;;;3.30;1.60;;;;;;;15.95;57.89;100931.53;5100200;27;20363;-83
2021/05/11 02:24:17;;;;;;;3.13;1.50;;;;;;;15.54;58.55;100918.91;5028554;28;20413;-82
2021/05/11 02:26:43;;;;;;;3.47;1.88;;;;;;;15.48;58.65;100922.69;5028374;28;20537;-82
2021/05/11 02:29:10;;;;;;;2.70;1.20;;;;;;;15.43;58.84;100911.31;5028533;28;20064;-83
2021/05/11 02:31:37;;;;;;;3.92;1.23;;;;;;;15.40;58.75;100919.44;5028406;28;20022;-83
2021/05/11 02:34:03;;;;;;;1.83;1.15;;;;;;;15.38;58.75;100915.97;5031465;28;20030;-83
2021/05/11 02:36:30;;;;;;;1.95;1.80;;;;;;;15.34;58.83;100919.69;5041783;28;20035;-83
2021/05/11 02:38:56;;;;;;;1.20;1.10;;;;;;;15.31;58.95;100914.47;5033753;28;20032;-82
2021/05/11 02:41:23;;;;;;;0.63;0.30;;;;;;;15.27;59.41;100920.84;5032750;28;20029;-83
2021/05/11 02:43:49;;;;;;;1.92;1.42;;;;;;;15.26;59.25;100927.97;5031574;28;20116;-82
2021/05/11 02:46:15;;;;;;;1.58;1.15;;;;;;;15.27;59.11;100924.38;5030794;28;20076;-83
2021/05/11 02:48:42;;;;;;;1.35;0.70;;;;;;;15.26;59.44;100919.97;5011072;28;20465;-83
2021/05/11 02:51:08;;;;;;;1.25;0.93;;;;;;;15.26;59.21;100916.44;5029151;28;20046;-86
2021/05/11 02:53:35;;;;;;;0.75;0.70;;;;;;;15.28;59.40;100914.59;5029060;28;20030;-83
2021/05/11 02:56:01;;;;;;;2.90;1.60;;;;;;;15.31;59.28;100914.47;5030713;28;20037;-83
2021/05/11 02:58:29;;;;;;;1.17;0.95;;;;;;;15.31;59.62;100901.13;5032124;28;20440;-83
2021/05/11 03:00:56;;;;;;;1.13;0.82;;;;;;;15.31;59.21;100901.97;5038774;28;20041;-83
2021/05/11 03:03:22;;;;;;;1.02;0.50;;;;;;;15.31;59.22;100893.97;5029544;28;20120;-83
2021/05/11 03:05:48;;;;;;;0.98;0.85;;;;;;;15.29;59.15;100900.28;5034576;28;20025;-84
2021/05/11 03:08:15;;;;;;;0.70;0.57;;;;;;;15.25;59.11;100901.34;5035636;28;20033;-84
2021/05/11 03:10:41;;;;;;;2.17;1.40;;;;;;;15.18;59.40;100912.25;5038756;28;20026;-84
2021/05/11 03:13:08;;;;;;;0.65;0.65;;;;;;;15.14;59.40;100904.41;5031516;28;20038;-83
2021/05/11 03:15:34;;;;;;;6.70;0.43;;;;;;;15.08;59.80;100902.88;5033421;28;20018;-83
2021/05/11 03:18:00;;;;;;;1.23;1.13;;;;;;;15.06;59.70;100904.72;5036697;28;20029;-83
2021/05/11 03:20:27;;;;;;;2.00;1.70;;;;;;;15.06;59.61;100909.19;5043375;28;20638;-83
2021/05/11 03:22:53;;;;;;;2.10;1.42;;;;;;;15.05;59.37;100905.66;5030947;28;20099;-84
2021/05/11 03:25:20;;;;;;;1.55;1.02;;;;;;;15.00;59.49;100903.16;5031339;28;20099;-84
2021/05/11 03:27:46;;;;;;;8.00;1.27;;;;;;;14.96;59.89;100908.66;5035462;28;20041;-83
2021/05/11 03:30:13;;;;;;;1.40;1.17;;;;;;;14.94;59.83;100913.19;5061379;28;20063;-83
2021/05/11 03:32:40;;;;;;;5.03;1.30;;;;;;;14.88;59.73;100911.63;5051032;28;20064;-83
2021/05/11 03:35:06;;;;;;;1.60;1.10;;;;;;;14.85;60.10;100915.28;5049132;28;20049;-83
2021/05/11 03:37:33;;;;;;;2.75;0.60;;;;;;;14.83;60.17;100910.94;5037961;28;20029;-83
2021/05/11 03:39:59;;;;;;;4.63;0.70;;;;;;;14.79;60.42;100914.63;5042656;28;20032;-83
2021/05/11 03:42:31;;;;;;;1.20;0.75;;;;;;;14.81;60.01;100918.97;5042395;28;20388;-83
2021/05/11 03:45:01;;;;;;;3.38;2.10;;;;;;;14.82;60.19;100923.38;5034758;28;20021;-83
2021/05/11 03:47:29;;;;;;;0.68;0.55;;;;;;;14.83;60.35;100935.81;5017108;28;20034;-83
2021/05/11 03:49:55;;;;;;;2.20;0.55;;;;;;;14.83;60.32;100941.13;5034948;28;20030;-84
2021/05/11 03:52:21;;;;;;;1.45;0.80;;;;;;;14.84;60.25;100934.88;5034828;28;20040;-83
2021/05/11 03:54:48;;;;;;;1.00;0.70;;;;;;;14.86;60.23;100943.66;5035208;28;20036;-83
2021/05/11 03:57:14;;;;;;;0.70;0.40;;;;;;;14.88;60.87;100944.50;5038047;28;20029;-83
2021/05/11 03:59:40;;;;;;;2.30;1.45;;;;;;;14.88;60.75;100944.50;5034750;28;20435;-82
2021/05/11 04:02:07;;;;;;;8.25;1.55;;;;;;;14.90;60.62;100943.59;5034406;28;20025;-83
2021/05/11 04:04:33;;;;;;;4.63;2.67;;;;;;;14.92;60.56;100950.59;5034678;28;20030;-84
2021/05/11 04:06:59;;;;;;;1.27;0.77;;;;;;;14.93;60.59;100947.00;5034392;28;20025;-83
2021/05/11 04:09:59;;;;;;;1.50;1.40;;;;;;;14.95;60.54;100950.47;5034304;28;20029;-83
2021/05/11 04:17:44;;;;;;;3.20;1.67;;;;;;;14.92;60.68;100949.75;5118758;28;20127;-82
2021/05/11 04:20:12;;;;;;;2.15;1.00;;;;;;;14.87;60.82;100942.75;5113661;27;20146;-83
2021/05/11 04:22:39;;;;;;;1.20;0.93;;;;;;;14.88;60.43;100944.50;5110383;28;20059;-82
2021/05/11 04:25:06;;;;;;;2.40;1.75;;;;;;;14.87;60.38;100947.22;5125627;27;20080;-82
2021/05/11 04:27:32;;;;;;;3.08;1.33;;;;;;;14.85;61.00;100947.28;5121652;27;20019;-83
2021/05/11 04:30:01;;;;;;;1.55;1.40;;;;;;;14.85;60.73;100944.63;5114934;28;20410;-83
2021/05/11 04:32:27;;;;;;;1.45;1.17;;;;;;;14.83;60.39;100941.13;5112259;28;20091;-83
2021/05/11 04:34:54;;;;;;;1.27;1.17;;;;;;;14.80;61.13;100935.03;5126405;27;20502;-83
2021/05/11 04:37:20;;;;;;;3.72;1.05;;;;;;;14.82;60.63;100942.06;5119595;27;20035;-82
2021/05/11 04:39:46;;;;;;;2.67;1.27;;;;;;;14.82;60.87;100943.88;5112577;28;20055;-82
2021/05/11 04:42:12;;;;;;;5.72;2.17;;;;;;;14.85;60.82;100949.06;5113700;28;20024;-82
2021/05/11 04:44:40;;;;;;;0.68;0.68;;;;;;;14.85;60.70;100939.28;5115276;28;20376;-84
2021/05/11 04:47:11;;;;;;;1.50;1.00;;;;;;;14.88;60.65;100938.31;5112768;28;20059;-83
2021/05/11 04:49:38;;;;;;;1.23;1.13;;;;;;;14.91;60.90;100942.66;5117379;28;20072;-83
2021/05/11 04:52:06;;;;;;;2.17;1.35;;;;;;;14.94;60.73;100947.88;5121684;27;20385;-84
2021/05/11 04:54:32;;;;;;;0.88;0.88;;;;;;;14.99;60.46;100945.91;5113624;28;20108;-84
2021/05/11 04:56:58;;;;;;;1.23;0.95;;;;;;;15.02;60.58;100952.00;5114868;28;20471;-84
2021/05/11 04:59:25;;;;;;;3.42;1.70;;;;;;;15.08;60.77;100952.69;5115178;28;20024;-83
2021/05/11 05:01:52;;;;;;;2.10;1.38;;;;;;;15.13;60.55;100953.41;5121308;28;20020;-83
2021/05/11 05:04:18;;;;;;;3.50;2.08;;;;;;;15.17;60.52;100953.22;5101948;28;20447;-83
2021/05/11 05:06:44;;;;;;;3.95;2.78;;;;;;;15.22;60.55;100952.19;5105600;28;20505;-84
2021/05/11 05:09:10;;;;;;;4.10;2.47;;;;;;;15.28;60.55;100954.63;5105319;27;20082;-83
2021/05/11 05:11:40;;;;;;;1.30;1.05;;;;;;;15.32;60.53;100953.59;5105346;28;20044;-83
2021/05/11 05:14:08;;;;;;;1.42;1.05;;;;;;;15.39;60.38;100951.53;5107637;27;20369;-83
2021/05/11 05:16:35;;;;;;;2.78;2.13;;;;;;;15.43;60.38;100951.38;5109253;27;20099;-83
2021/05/11 05:19:04;;;;;;;8.52;1.70;;;;;;;15.50;60.22;100942.19;5098242;28;20024;-84
2021/05/11 05:21:30;;;;;;;1.48;1.08;;;;;;;15.53;60.18;100942.06;5099990;28;20445;-84
2021/05/11 05:24:12;;;;;;;0.68;0.68;;;;;;;15.59;59.96;100945.41;5092126;27;20055;-83
2021/05/11 05:26:39;;;;;;;1.97;1.53;;;;;;;15.63;60.21;100945.25;5078790;28;20029;-83
2021/05/11 05:29:05;;;;;;;2.15;1.05;;;;;;;15.65;59.98;100934.50;5095693;28;20069;-84
2021/05/11 05:31:32;;;;;;;2.97;1.02;;;;;;;15.67;59.93;100932.63;5080320;28;20024;-84
2021/05/11 05:34:00;;;;;;;3.72;1.02;;;;;;;15.70;60.49;100929.81;5101034;28;20130;-88
2021/05/11 05:36:26;;;;;;;1.13;1.00;;;;;;;15.68;60.13;100929.91;5081238;28;20033;-82
2021/05/11 05:38:53;;;;;;;0.65;0.60;;;;;;;15.69;60.23;100928.13;5090014;28;20069;-83
2021/05/11 05:41:24;;;;;;;7.63;1.50;;;;;;;15.71;60.42;100928.91;5093911;28;20076;-84
2021/05/11 05:43:51;;;;;;;0.65;0.65;;;;;;;15.75;60.14;100932.31;5093492;28;20028;-81
2021/05/11 05:46:18;;;;;;;1.75;0.93;;;;;;;15.78;60.25;100933.06;5087816;28;20028;-80
2021/05/11 05:48:45;;;;;;;1.20;0.80;;;;;;;15.81;60.61;100935.63;5083083;28;20415;-85
2021/05/11 05:51:13;;;;;;;0.85;0.85;;;;;;;15.86;60.47;100932.78;5085717;28;20032;-85
2021/05/11 05:53:42;;;;;;;0.55;0.55;;;;;;;15.92;60.23;100931.69;5079761;28;20511;-85
2021/05/11 05:56:09;;;;;;;0.22;0.22;;;;;;;15.97;60.11;100924.34;5079074;28;20029;-85
2021/05/11 05:58:36;;;;;;;0.40;0.40;;;;;;;16.01;60.08;100921.50;5078154;28;20032;-85
2021/05/11 06:01:07;;;;;;;4.63;1.70;;;;;;;16.06;59.94;100928.44;5089376;28;20552;-85
2021/05/11 06:03:37;;;;;;;4.53;1.92;;;;;;;16.11;59.75;100926.44;5088806;28;20068;-84
2021/05/11 06:06:05;;;;;;;3.45;1.50;;;;;;;16.16;59.44;100921.75;5084029;28;20032;-83
2021/05/11 06:08:31;;;;;;;4.18;1.73;;;;;;;16.24;59.46;100921.47;5079797;28;20143;-85
2021/05/11 06:11:04;;;;;;;3.92;1.35;;;;;;;16.29;59.30;100914.09;5077546;28;20027;-85
2021/05/11 06:13:37;;;;;;;5.15;1.70;;;;;;;16.33;59.24;100913.88;5094117;28;20024;-85
2021/05/11 06:18:50;;;;;;;5.40;1.52;;;;;;;16.40;59.15;100910.94;5081809;28;20040;-84
2021/05/11 06:21:17;;;;;;;1.33;0.70;;;;;;;16.43;59.38;100917.03;5085582;28;20050;-85
2021/05/11 06:23:43;;;;;;;1.65;0.57;;;;;;;16.50;59.04;100912.31;5087435;28;20039;-83
2021/05/11 06:26:13;;;;;;;3.38;1.55;;;;;;;16.47;59.32;100913.31;5080439;28;20036;-85
2021/05/11 06:28:41;;;;;;;3.63;0.70;;;;;;;16.52;59.11;100906.88;5079426;28;20020;-85
2021/05/11 06:31:08;;;;;;;6.55;2.05;;;;;;;16.50;59.17;100910.50;5073687;28;20036;-84
2021/05/11 06:33:35;;;;;;;0.90;0.90;;;;;;;16.54;58.85;100907.69;5073588;28;20383;-84
2021/05/11 06:36:01;;;;;;;1.27;0.82;;;;;;;16.56;59.12;100911.16;5072632;28;20383;-86
2021/05/11 06:38:28;;;;;;;3.15;1.45;;;;;;;16.56;59.10;100911.16;5088000;28;20356;-86
2021/05/11 06:40:54;;;;;;;0.20;0.20;;;;;;;16.57;59.06;100918.25;5088246;28;20036;-87
2021/05/11 06:43:26;;;;;;;1.65;0.30;;;;;;;16.61;59.23;100925.19;5076906;28;20395;-86
2021/05/11 06:49:03;;;;;;;2.90;1.88;;;;;;;16.62;59.40;100916.25;5088413;28;20541;-93
2021/05/11 06:54:24;;;;;;;5.13;1.58;;;;;;;16.82;59.03;100926.94;5070345;27;20959;-85
2021/05/11 06:56:50;;;;;;;2.45;1.17;;;;;;;16.86;58.97;100918.75;5053161;28;20033;-86
2021/05/11 06:59:16;;;;;;;2.70;1.73;;;;;;;16.86;59.12;100925.00;5046427;28;20396;-85
2021/05/11 07:01:43;;;;;;;3.25;2.00;;;;;;;16.86;59.79;100927.66;5041468;28;20030;-86
2021/05/11 07:04:09;;;;;;;4.55;2.80;;;;;;;16.90;59.27;100920.38;5049138;28;20085;-85
2021/05/11 07:06:38;;;;;;;10.10;2.83;;;;;;;16.97;59.42;100924.50;5049137;28;20061;-85
2021/05/11 07:09:08;;;;;;;2.92;1.88;;;;;;;17.01;59.79;100923.47;5048615;28;20017;-85
2021/05/11 07:14:18;;;;;;;1.10;1.02;;;;;;;17.21;59.68;100913.63;5072744;27;20461;-86
2021/05/11 07:16:45;;;;;;;8.70;2.95;;;;;;;17.28;59.52;100915.97;5062673;28;20040;-84
2021/05/11 07:19:11;;;;;;;9.25;2.05;;;;;;;17.36;59.39;100915.59;5065837;28;20033;-85
2021/05/11 07:21:37;;;;;;;7.47;3.03;;;;;;;17.45;59.44;100907.09;5063849;28;20029;-86
2021/05/11 07:24:04;;;;;;;5.93;2.88;;;;;;;17.50;59.34;100911.41;5068749;28;20479;-83
2021/05/11 07:26:31;;;;;;;7.47;2.75;;;;;;;17.58;59.35;100906.50;5068777;28;20039;-83
2021/05/11 07:31:43;;;;;;;9.52;2.90;;;;;;;17.58;60.32;100902.03;5053397;28;20403;-84
2021/05/11 07:34:13;;;;;;;3.92;2.30;;;;;;;17.81;59.54;100897.38;5049928;28;20029;-86
2021/05/11 07:36:40;;;;;;;7.22;2.28;;;;;;;17.93;59.65;100895.88;5049525;28;20352;-86
2021/05/11 07:39:06;;;;;;;3.83;2.42;;;;;;;18.05;59.32;100895.28;5049575;28;20021;-85
2021/05/11 07:41:32;;;;;;;9.20;1.55;;;;;;;18.22;59.10;100896.25;5044306;28;20029;-84
2021/05/11 07:43:59;;;;;;;6.93;2.45;;;;;;;18.31;58.90;100902.97;5047944;28;20034;-85
2021/05/11 07:46:37;;;;;;;6.40;2.58;;;;;;;18.52;59.05;100898.31;5047909;28;20037;-84
2021/05/11 07:49:23;;;;;;;10.48;5.80;;;;;;;18.64;58.62;100899.44;5044806;28;20095;-84
2021/05/11 08:14:38;;;;;;;12.93;7.85;;;;;;;19.57;55.98;100897.97;5046922;28;20249;-88
2021/05/11 08:16:48;;;;;;;17.35;7.60;;;;;;;19.66;55.99;100892.06;5040391;28;20076;-87
2021/05/11 08:19:41;;;;;;;18.75;8.57;;;;;;;19.70;55.61;100890.94;5036226;28;20021;-86
2021/05/11 08:30:19;;;;;;;13.15;7.13;;;;;;;19.88;55.02;100896.25;5089495;28;20400;-89
2021/05/11 08:32:46;;;;;;;14.27;7.00;;;;;;;20.02;54.71;100906.19;5067597;28;20500;-82
2021/05/11 08:35:13;;;;;;;14.90;8.60;;;;;;;20.14;54.09;100902.78;5060493;28;20120;-82
2021/05/11 08:37:39;;;;;;;15.50;7.95;;;;;;;20.26;53.89;100913.75;5055101;28;20032;-83
2021/05/11 08:40:06;;;;;;;11.85;7.85;;;;;;;20.33;53.67;100907.06;5059584;28;20028;-79
2021/05/11 08:45:39;;;;;;;13.02;8.05;;;;;;;20.48;53.43;100916.03;5068951;28;20040;-82
2021/05/11 08:48:06;;;;;;;15.10;7.75;;;;;;;20.57;53.61;100910.06;5059466;28;20455;-86
2021/05/11 08:50:35;;;;;;;15.30;7.70;;;;;;;20.73;53.59;100914.56;5049211;28;20033;-81
2021/05/11 08:53:15;;;;;;;10.95;7.40;;;;;;;20.87;53.22;100911.00;5055913;28;20021;-83
2021/05/11 09:04:35;;;;;;;13.63;7.45;;;;;;;21.36;52.22;100909.72;5058581;28;20045;-79
2021/05/11 09:23:33;;;;;;;14.25;7.30;;;;;;;21.88;51.03;100921.66;5051121;28;20125;-86
2021/05/11 09:32:56;;;;;;;13.90;7.75;;;;;;;22.01;51.03;100927.06;5081071;28;20434;-84
2021/05/11 09:56:46;;;;;;;15.85;8.10;;;;;;;22.58;50.43;100929.53;5066150;28;20408;-91
2021/05/11 10:10:29;;;;;;;14.70;8.73;;;;;;;22.71;49.54;100934.91;5076959;27;20414;-88
2021/05/11 10:37:08;;;;;;;13.10;8.43;;;;;;;23.23;47.84;100914.16;5140282;27;20360;-91
2021/05/11 10:44:39;;;;;;;14.30;9.40;;;;;;;23.24;48.00;100910.50;5002601;27;1295368;-88
2021/05/11 10:47:07;;;;;;;16.38;8.07;;;;;;;23.18;48.26;100905.53;5043347;28;20086;-88
2021/05/11 10:55:10;;;;;;;15.65;9.98;;;;;;;23.17;50.39;100884.88;5107675;27;20370;-88
2021/05/11 10:57:51;;;;;;;14.98;9.65;;;;;;;23.26;49.66;100884.22;5065645;28;20128;-85
2021/05/11 11:03:26;;;;;;;14.07;9.50;;;;;;;23.36;50.17;100878.13;5078052;27;20423;-87
2021/05/11 11:06:00;;;;;;;14.48;8.77;;;;;;;23.32;50.34;100871.22;5079156;28;20495;-88
2021/05/11 11:11:22;;;;;;;15.05;10.23;;;;;;;23.35;49.66;100866.47;5076499;27;1641346;-87
2021/05/11 11:13:58;;;;;;;18.10;9.40;;;;;;;23.39;49.82;100856.25;5133168;27;20482;-86
2021/05/11 11:16:25;;;;;;;16.60;10.32;;;;;;;23.25;50.37;100846.47;5126075;28;20023;-89
2021/05/11 11:18:51;;;;;;;15.73;9.55;;;;;;;23.38;49.38;100846.44;5127007;28;20028;-89
2021/05/11 11:24:06;;;;;;;20.83;9.30;;;;;;;23.42;48.59;100831.72;5032755;27;20120;-89
2021/05/11 11:26:38;;;;;;;15.60;8.88;;;;;;;23.61;47.82;100824.94;5011498;28;20034;-90
2021/05/11 11:31:50;;;;;;;9.95;7.00;;;;;;;24.13;46.56;100815.53;5082989;27;20413;-85
2021/05/11 11:34:34;;;;;;;10.18;6.65;;;;;;;24.43;44.80;100822.25;5058064;28;20413;-90
2021/05/11 11:37:03;;;;;;;14.05;8.65;;;;;;;24.34;44.18;100817.56;5050282;28;20100;-90
2021/05/11 11:39:47;;;;;;;12.18;7.65;;;;;;;24.48;43.82;100827.31;5046192;28;20045;-91
2021/05/11 11:45:11;;;;;;;11.88;6.82;;;;;;;24.67;43.28;100827.59;5111460;27;20359;-91
2021/05/11 11:47:52;;;;;;;13.65;6.82;;;;;;;24.60;43.48;100837.16;5098151;28;20032;-91
2021/05/11 11:50:19;;;;;;;11.60;6.57;;;;;;;24.65;43.44;100839.50;5091492;28;20044;-89
2021/05/11 11:53:04;;;;;;;10.45;5.85;;;;;;;24.63;43.06;100836.06;5100516;28;20028;-90
2021/05/11 11:58:22;;;;;;;13.20;6.78;;;;;;;24.51;41.52;100846.88;5085718;27;20443;-88
2021/05/11 12:00:50;;;;;;;10.98;6.25;;;;;;;24.47;42.46;100845.38;5079481;28;20376;-82
2021/05/11 12:03:21;;;;;;;12.13;6.07;;;;;;;24.50;42.32;100849.69;5074016;28;20020;-84
2021/05/11 12:08:31;;;;;;;11.88;7.00;;;;;;;24.31;42.19;100867.41;5091677;27;20389;-85
2021/05/11 12:13:43;;;;;;;11.15;6.72;;;;;;;24.14;41.96;100878.66;5036142;28;20400;-82
2021/05/11 12:19:04;;;;;;;13.82;7.50;;;;;;;23.95;43.69;100892.72;5100394;27;20857;-79
2021/05/11 12:21:33;;;;;;;15.45;7.22;;;;;;;23.85;44.38;100887.13;5106122;28;20042;-79
2021/05/11 12:24:08;;;;;;;10.73;6.45;;;;;;;23.81;44.68;100891.91;5107425;28;20111;-80
2021/05/11 12:26:35;;;;;;;12.02;6.50;;;;;;;23.72;44.67;100893.44;5103434;28;20028;-82
2021/05/11 12:29:11;;;;;;;11.25;6.90;;;;;;;23.73;44.13;100897.88;5105740;28;20478;-82
2021/05/11 12:31:40;;;;;;;16.58;8.75;;;;;;;23.61;45.02;100895.25;5104805;28;20082;-82
2021/05/11 12:34:08;;;;;;;10.68;6.47;;;;;;;23.63;45.22;100895.97;5107383;28;20098;-84
2021/05/11 12:36:55;;;;;;;14.82;7.78;;;;;;;23.53;46.16;100893.97;5107238;28;20543;-85
2021/05/11 12:39:32;;;;;;;24.02;9.55;;;;;;;23.47;46.01;100894.44;5107283;28;20482;-86
2021/05/11 12:42:20;;;;;;;15.20;8.13;;;;;;;23.54;46.65;100894.81;5105625;28;20015;-84
2021/05/11 12:45:07;;;;;;;11.02;6.93;;;;;;;23.49;46.24;100897.88;5102042;28;20028;-84
2021/05/11 12:50:26;;;;;;;16.60;8.00;;;;;;;23.50;46.47;100891.50;5077683;27;20997;-89
2021/05/11 12:52:53;;;;;;;;;;;;;;;23.57;48.08;100892.75;5060854;28;20036;-88
2021/05/11 12:55:46;;;;;;;17.30;7.80;;;;;;;23.41;47.51;100887.66;5060262;28;19919;-92
2021/05/11 12:58:29;;;;;;;17.10;7.68;;;;;;;23.12;48.15;100889.72;5060248;28;20044;-84
2021/05/11 13:01:05;;;;;;;18.63;9.35;;;;;;;23.05;48.30;100893.84;5052202;28;20029;-91
2021/05/11 13:03:56;;;;;;;18.50;10.07;;;;;;;23.06;48.44;100896.44;5062470;28;20040;-88
2021/05/11 13:19:45;;;;;;;14.55;7.55;;;;;;;23.10;48.88;100897.06;5050378;27;20419;-83
2021/05/11 13:23:06;;;;;;;14.20;6.90;;;;;;;23.10;49.98;100891.66;5047934;28;20107;-82
2021/05/11 13:28:18;;;;;;;13.68;7.68;;;;;;;23.01;49.89;100889.66;5065560;28;20932;-87
2021/05/11 13:30:55;;;;;;;11.82;6.65;;;;;;;22.99;50.07;100896.97;5056666;28;20034;-89
2021/05/11 13:33:27;;;;;;;11.50;6.22;;;;;;;23.04;49.95;100897.50;5054267;28;20029;-86
2021/05/11 13:35:54;;;;;;;;;;;;;;;23.24;49.27;100898.81;5061440;28;20449;-86
2021/05/11 13:38:22;;;;;;;13.23;6.28;;;;;;;23.06;49.68;100907.25;5052219;28;20275;-83
2021/05/11 13:40:49;;;;;;;8.65;5.65;;;;;;;23.04;49.20;100905.63;5059033;28;20032;-86
2021/05/11 13:43:16;;;;;;;13.45;5.60;;;;;;;23.04;49.10;100900.22;5056829;28;20017;-87
2021/05/11 13:45:42;;;;;;;12.73;6.00;;;;;;;23.04;48.99;100900.22;5062589;28;20112;-85
2021/05/11 13:48:12;;;;;;;6.25;3.92;;;;;;;22.86;47.58;100905.13;5059991;28;20025;-85
2021/05/11 13:53:27;;;;;;;9.38;3.25;;;;;;;22.66;47.03;100895.72;5048177;28;20033;-82
2021/05/11 14:04:29;;;;;;;7.50;3.50;;;;;;;21.93;45.98;100904.19;5059600;27;745918;-89
2021/05/11 14:06:57;;;;;;;10.02;3.40;;;;;;;22.25;45.41;100908.38;5070177;28;20029;-90
2021/05/11 14:09:24;;;;;;;8.13;3.63;;;;;;;22.34;45.79;100899.63;5052032;28;20105;-82
2021/05/11 14:11:51;;;;;;;7.22;3.88;;;;;;;22.37;46.21;100893.16;5064765;28;20032;-87
2021/05/11 14:14:17;;;;;;;7.20;3.55;;;;;;;22.45;46.40;100888.13;5060838;28;20037;-88
2021/05/11 14:16:45;;;;;;;6.68;3.63;;;;;;;22.56;46.39;100879.28;5054453;28;20358;-89
2021/05/11 14:19:15;;;;;;;7.55;3.47;;;;;;;22.62;46.32;100889.66;5062007;28;20163;-89
2021/05/11 14:21:42;;;;;;;6.13;3.33;;;;;;;22.64;46.52;100884.16;5063922;28;20074;-89
2021/05/11 14:24:09;;;;;;;5.60;3.55;;;;;;;22.59;46.65;100874.56;5060461;28;20037;-90
2021/05/11 14:26:35;;;;;;;8.02;3.63;;;;;;;22.67;46.84;100871.31;5063644;28;20033;-89
2021/05/11 14:29:02;;;;;;;5.85;3.63;;;;;;;22.80;46.69;100873.97;5063460;28;20029;-90
2021/05/11 14:31:28;;;;;;;5.80;3.70;;;;;;;22.81;46.31;100875.72;5046642;28;20541;-91
2021/05/11 14:33:55;;;;;;;9.95;3.35;;;;;;;22.86;46.05;100870.84;5058443;28;20032;-87
2021/05/11 14:36:21;;;;;;;8.40;3.70;;;;;;;22.84;45.60;100880.91;5061237;28;20017;-85
2021/05/11 14:38:47;;;;;;;8.18;3.97;;;;;;;22.91;45.17;100882.19;5057987;28;20029;-86
2021/05/11 14:41:14;;;;;;;10.02;4.57;;;;;;;22.86;45.50;100884.34;5043817;28;20116;-88
2021/05/11 14:43:42;;;;;;;8.88;4.40;;;;;;;22.82;45.94;100884.66;5062192;28;20030;-87
2021/05/11 14:46:11;;;;;;;8.30;4.43;;;;;;;22.79;46.32;100893.84;5063954;28;20031;-87
2021/05/11 14:48:38;;;;;;;8.93;4.38;;;;;;;22.77;46.33;100885.88;5061157;28;20035;-86
2021/05/11 14:51:06;;;;;;;7.32;4.47;;;;;;;22.60;46.61;100884.38;5062687;28;20029;-86
2021/05/11 14:53:32;;;;;;;9.85;4.85;;;;;;;22.52;46.88;100891.25;5057109;28;20086;-86
2021/05/11 14:56:01;;;;;;;7.93;4.13;;;;;;;22.44;47.39;100889.09;5059627;28;20499;-87
2021/05/11 14:58:27;;;;;;;7.72;4.78;;;;;;;22.35;47.74;100906.78;5055841;28;20471;-84
2021/05/11 15:00:54;;;;;;;12.60;5.72;;;;;;;22.28;48.05;100906.34;5049181;28;20025;-86
2021/05/11 15:03:20;;;;;;;7.88;5.35;;;;;;;22.26;48.26;100897.47;5052046;28;20037;-86
2021/05/11 15:05:46;;;;;;;11.32;6.63;;;;;;;22.20;48.84;100900.59;5054887;28;20026;-82
2021/05/11 15:08:13;;;;;;;8.02;5.10;;;;;;;22.19;49.00;100903.41;5056156;28;20496;-84
2021/05/11 15:10:39;;;;;;;11.98;5.80;;;;;;;22.14;49.19;100904.59;5045368;28;20043;-85
2021/05/11 15:13:06;;;;;;;10.50;5.95;;;;;;;22.09;49.59;100903.16;5042344;28;20033;-85
2021/05/11 15:15:34;;;;;;;7.32;5.00;;;;;;;22.10;49.80;100903.03;5033763;28;20025;-85
2021/05/11 15:18:04;;;;;;;12.63;6.18;;;;;;;22.05;50.05;100913.28;5032704;28;20032;-85
2021/05/11 15:20:33;;;;;;;8.15;5.45;;;;;;;21.95;50.58;100910.34;5043539;28;20372;-84
2021/05/11 15:22:59;;;;;;;9.80;6.38;;;;;;;21.84;51.22;100912.03;5037418;28;20033;-85
2021/05/11 15:25:29;;;;;;;10.27;5.90;;;;;;;21.76;51.48;100910.72;5048453;22;20132;-84
2021/05/11 15:27:57;;;;;;;13.93;7.45;;;;;;;21.59;51.82;100921.75;5025551;28;20485;-87
2021/05/11 15:30:26;;;;;;;14.13;7.68;;;;;;;21.49;52.38;100918.75;5028321;28;20017;-87
2021/05/11 15:32:57;;;;;;;11.52;6.90;;;;;;;21.43;52.33;100921.84;5029088;28;20026;-87
2021/05/11 15:35:33;;;;;;;11.10;6.95;;;;;;;21.43;52.60;100921.84;5030855;28;20026;-86
2021/05/11 15:38:02;;;;;;;9.68;6.82;;;;;;;21.33;53.19;100925.13;5029648;28;20026;-85
2021/05/11 15:40:31;;;;;;;9.82;6.43;;;;;;;21.30;53.31;100925.31;5021213;28;20137;-87
2021/05/11 15:42:58;;;;;;;12.32;7.18;;;;;;;21.25;53.50;100932.84;5030171;28;20554;-86
2021/05/11 15:45:25;;;;;;;9.25;6.22;;;;;;;21.21;53.89;100942.09;5012800;28;20036;-85
2021/05/11 15:47:52;;;;;;;11.40;6.72;;;;;;;21.13;53.92;100939.00;5034939;28;20022;-87
2021/05/11 15:50:22;;;;;;;14.68;6.22;;;;;;;21.00;54.08;100939.75;5028029;28;20034;-86
2021/05/11 15:52:48;;;;;;;9.25;5.85;;;;;;;20.86;54.29;100939.78;5033817;28;20057;-86